Time;durP1;ratioP1;P1;durP2;ratioP2;P2;SDS_P1;SDS_P2;PMS_P1;PMS_P2;Temp;Humidity;BMP_temperature;BMP_pressure;BME280_temperature;BME280_humidity;BME280_pressure;Samples;Min_cycle;Max_cycle;Signal;HPM_P1;HPM_P2
2021/03/27 00:01:41;;;;;;;85.47;46.00;;;;;;;6.69;62.05;99169.39;2236619;80;21130;-84
2021/03/27 00:04:42;;;;;;;93.55;46.15;;;;;;;6.68;62.14;99169.06;2237001;80;21299;-83
2021/03/27 00:07:44;;;;;;;81.37;44.58;;;;;;;6.67;62.21;99168.70;2237075;80;21194;-82
2021/03/27 00:10:46;;;;;;;94.80;49.42;;;;;;;6.66;62.33;99164.45;2236761;80;21122;-83
2021/03/27 00:13:47;;;;;;;94.72;49.77;;;;;;;6.64;62.71;99171.59;2237066;80;21114;-84
2021/03/27 00:16:49;;;;;;;87.57;49.27;;;;;;;6.65;62.81;99164.94;2236802;80;21122;-83
2021/03/27 00:19:51;;;;;;;91.17;48.17;;;;;;;6.66;62.99;99163.16;2237089;80;21130;-84
2021/03/27 00:22:53;;;;;;;94.65;50.30;;;;;;;6.63;63.11;99157.77;2237178;80;21094;-85
2021/03/27 00:25:55;;;;;;;92.55;48.40;;;;;;;6.63;63.32;99161.67;2237267;80;21134;-83
2021/03/27 00:28:56;;;;;;;85.35;44.70;;;;;;;6.56;63.58;99165.31;2237296;80;21287;-82
2021/03/27 00:31:58;;;;;;;97.78;49.63;;;;;;;6.46;63.51;99160.63;2237326;80;21303;-82
2021/03/27 00:35:00;;;;;;;105.83;55.48;;;;;;;6.38;63.66;99163.12;2239116;80;21283;-80
2021/03/27 00:38:01;;;;;;;97.30;53.85;;;;;;;6.27;64.33;99164.59;2239346;80;21129;-82
2021/03/27 00:41:03;;;;;;;98.03;50.28;;;;;;;6.12;64.31;99164.69;2239428;80;21268;-80
2021/03/27 00:44:04;;;;;;;86.95;44.95;;;;;;;6.01;64.17;99158.35;2237174;80;21134;-83
2021/03/27 00:47:06;;;;;;;97.75;50.67;;;;;;;5.92;64.37;99162.13;2236514;80;21193;-83
2021/03/27 00:50:08;;;;;;;96.42;48.95;;;;;;;5.84;64.41;99158.55;2236781;80;21632;-84
2021/03/27 00:53:09;;;;;;;88.90;47.03;;;;;;;5.76;64.63;99160.56;2237200;80;21121;-84
2021/03/27 00:56:11;;;;;;;76.30;42.93;;;;;;;5.70;64.67;99154.61;2236706;80;21236;-83
2021/03/27 00:59:13;;;;;;;86.15;44.13;;;;;;;5.60;64.87;99150.72;2237047;80;21307;-83
2021/03/27 01:02:15;;;;;;;78.95;41.53;;;;;;;5.52;64.82;99158.37;2246541;79;21194;-84
2021/03/27 01:05:16;;;;;;;82.82;41.75;;;;;;;5.42;65.02;99157.06;2252027;79;21293;-83
2021/03/27 01:08:18;;;;;;;89.35;43.95;;;;;;;5.33;65.37;99141.00;2251988;79;21170;-83
2021/03/27 01:11:20;;;;;;;98.62;49.88;;;;;;;5.27;65.56;99147.20;2251903;79;21333;-83
2021/03/27 01:14:21;;;;;;;80.87;41.63;;;;;;;5.22;65.76;99140.31;2252057;79;21266;-84
2021/03/27 01:17:23;;;;;;;83.82;42.85;;;;;;;5.16;65.76;99138.25;2252026;79;21285;-85
2021/03/27 01:20:24;;;;;;;105.58;56.05;;;;;;;5.07;66.08;99138.09;2251790;79;21293;-84
2021/03/27 01:23:26;;;;;;;100.95;52.40;;;;;;;4.98;67.45;99141.97;2251919;79;21614;-84
2021/03/27 01:26:28;;;;;;;92.72;49.10;;;;;;;4.89;68.00;99143.59;2251811;79;21155;-84
2021/03/27 01:29:29;;;;;;;90.97;46.15;;;;;;;4.84;67.37;99132.77;2252331;79;21265;-84
2021/03/27 01:32:31;;;;;;;94.28;45.98;;;;;;;4.83;67.58;99128.54;2252423;79;21123;-85
2021/03/27 01:35:32;;;;;;;105.65;55.30;;;;;;;4.81;69.18;99128.67;2253098;79;21174;-80
2021/03/27 01:38:35;;;;;;;101.30;52.30;;;;;;;4.79;68.96;99131.89;2254417;79;21642;-83
2021/03/27 01:41:37;;;;;;;98.27;48.10;;;;;;;4.76;68.73;99132.16;2252195;79;21125;-84
2021/03/27 01:44:39;;;;;;;105.43;51.88;;;;;;;4.75;68.10;99125.78;2251689;79;21297;-84
2021/03/27 01:47:40;;;;;;;91.45;47.60;;;;;;;4.75;68.32;99125.30;2251687;79;21171;-85
2021/03/27 01:50:42;;;;;;;98.27;50.45;;;;;;;4.75;68.00;99117.52;2251972;79;21304;-84
2021/03/27 01:53:45;;;;;;;75.90;42.45;;;;;;;4.76;68.13;99119.67;2252081;79;21164;-83
2021/03/27 01:56:47;;;;;;;88.95;45.25;;;;;;;4.76;68.35;99110.11;2251671;79;21310;-84
2021/03/27 01:59:49;;;;;;;92.57;47.73;;;;;;;4.74;68.12;99115.06;2251928;79;21257;-84
2021/03/27 02:02:50;;;;;;;84.28;44.05;;;;;;;4.72;68.01;99113.09;2251761;79;21293;-84
2021/03/27 02:05:52;;;;;;;94.22;46.13;;;;;;;4.69;68.92;99110.77;2252496;79;21285;-82
2021/03/27 02:08:54;;;;;;;94.80;47.83;;;;;;;4.66;68.42;99121.39;2251910;79;21297;-83
2021/03/27 02:11:55;;;;;;;88.27;45.08;;;;;;;4.64;68.25;99112.92;2251683;79;21253;-83
2021/03/27 02:14:57;;;;;;;100.45;50.12;;;;;;;4.61;68.29;99119.20;2251641;79;21133;-83
2021/03/27 02:17:58;;;;;;;93.30;47.98;;;;;;;4.53;68.45;99116.45;2252030;79;21155;-83
2021/03/27 02:21:00;;;;;;;102.25;51.33;;;;;;;4.46;68.62;99114.84;2251740;79;21305;-83
2021/03/27 02:24:01;;;;;;;103.58;52.43;;;;;;;4.43;68.55;99112.52;2251933;79;21147;-84
2021/03/27 02:27:03;;;;;;;98.30;48.65;;;;;;;4.37;68.93;99114.80;2252001;79;21693;-86
2021/03/27 02:30:05;;;;;;;101.00;48.23;;;;;;;4.30;68.60;99117.12;2251707;79;21266;-84
2021/03/27 02:33:06;;;;;;;103.50;51.88;;;;;;;4.29;68.61;99116.27;2251996;79;21313;-84
2021/03/27 02:36:08;;;;;;;98.40;49.70;;;;;;;4.25;68.64;99117.49;2251896;79;21717;-85
2021/03/27 02:39:09;;;;;;;90.92;46.30;;;;;;;4.24;68.86;99118.92;2251982;79;21265;-83
2021/03/27 02:42:11;;;;;;;81.22;42.15;;;;;;;4.19;69.11;99116.70;2251979;79;21273;-84
2021/03/27 02:45:13;;;;;;;103.75;52.55;;;;;;;4.14;68.95;99114.17;2251895;79;21753;-84
2021/03/27 02:48:14;;;;;;;100.00;50.28;;;;;;;4.07;69.29;99113.86;2251737;79;21285;-84
2021/03/27 02:51:16;;;;;;;98.70;51.65;;;;;;;4.05;69.48;99113.65;2251732;79;21132;-84
2021/03/27 02:54:18;;;;;;;97.47;50.00;;;;;;;4.00;69.42;99107.06;2251881;79;21163;-84
2021/03/27 02:57:19;;;;;;;95.60;50.17;;;;;;;3.96;70.18;99102.28;2252043;79;21269;-83
2021/03/27 03:00:21;;;;;;;103.47;50.75;;;;;;;3.92;69.84;99102.17;2252005;79;21131;-83
2021/03/27 03:03:22;;;;;;;98.20;48.60;;;;;;;3.88;70.14;99105.50;2251634;79;21765;-83
2021/03/27 03:06:24;;;;;;;92.25;45.25;;;;;;;3.86;70.03;99107.88;2252015;79;21619;-82
2021/03/27 03:09:26;;;;;;;89.25;46.55;;;;;;;3.79;70.24;99108.85;2252027;79;21328;-82
2021/03/27 03:12:27;;;;;;;95.38;49.27;;;;;;;3.77;70.49;99104.76;2251994;79;21709;-83
2021/03/27 03:15:29;;;;;;;101.78;50.67;;;;;;;3.75;70.27;99103.59;2252449;79;21306;-84
2021/03/27 03:18:30;;;;;;;101.18;51.80;;;;;;;3.73;70.57;99104.17;2253251;79;21277;-82
2021/03/27 03:21:32;;;;;;;103.70;50.95;;;;;;;3.73;70.85;99096.88;2253212;79;21678;-82
2021/03/27 03:24:33;;;;;;;100.22;52.13;;;;;;;3.74;70.32;99090.74;2253185;79;21155;-82
2021/03/27 03:27:35;;;;;;;99.58;49.53;;;;;;;3.73;70.37;99086.04;2253258;79;21146;-83
2021/03/27 03:30:37;;;;;;;109.22;50.55;;;;;;;3.71;70.70;99080.17;2253601;79;21123;-83
2021/03/27 03:33:38;;;;;;;101.90;51.18;;;;;;;3.67;71.04;99081.39;2252593;79;21293;-83
2021/03/27 03:36:40;;;;;;;101.30;50.40;;;;;;;3.59;71.13;99082.02;2252084;79;21749;-83
2021/03/27 03:39:42;;;;;;;93.35;47.60;;;;;;;3.56;70.99;99073.66;2252199;79;21606;-83
2021/03/27 03:42:43;;;;;;;118.15;54.80;;;;;;;3.50;70.89;99073.70;2252278;79;21273;-83
2021/03/27 03:45:45;;;;;;;97.97;49.40;;;;;;;3.47;71.02;99076.52;2252191;79;21270;-85
2021/03/27 03:48:47;;;;;;;99.87;50.78;;;;;;;3.48;71.19;99073.49;2251834;79;21733;-84
2021/03/27 03:51:48;;;;;;;104.72;53.00;;;;;;;3.49;71.23;99070.77;2252068;79;21309;-84
2021/03/27 03:54:50;;;;;;;99.15;50.75;;;;;;;3.50;71.42;99071.59;2251900;79;21282;-86
2021/03/27 03:57:51;;;;;;;96.28;51.48;;;;;;;3.52;71.67;99065.81;2252305;79;21254;-84
2021/03/27 04:00:53;;;;;;;92.10;45.60;;;;;;;3.52;71.82;99068.40;2251939;79;21115;-84
2021/03/27 04:03:55;;;;;;;88.65;46.45;;;;;;;3.52;72.10;99061.92;2251731;79;21132;-84
2021/03/27 04:06:56;;;;;;;101.65;49.85;;;;;;;3.51;72.18;99059.81;2251776;79;21645;-83
2021/03/27 04:09:58;;;;;;;97.95;48.98;;;;;;;3.50;72.37;99060.77;2252261;79;21167;-84
2021/03/27 04:12:59;;;;;;;99.75;48.63;;;;;;;3.54;72.83;99063.91;2251982;79;21257;-83
2021/03/27 04:16:01;;;;;;;85.22;46.13;;;;;;;3.58;72.68;99055.77;2252025;79;21677;-83
2021/03/27 04:19:02;;;;;;;111.72;54.77;;;;;;;3.62;72.32;99059.74;2252157;79;21285;-83
2021/03/27 04:22:04;;;;;;;95.40;47.75;;;;;;;3.65;71.94;99054.30;2252246;79;21309;-82
2021/03/27 04:25:06;;;;;;;99.67;49.25;;;;;;;3.66;72.16;99051.27;2251773;79;21142;-83
2021/03/27 04:28:08;;;;;;;103.22;51.55;;;;;;;3.64;72.49;99049.25;2252114;79;21297;-83
2021/03/27 04:31:09;;;;;;;104.72;51.02;;;;;;;3.61;72.21;99050.33;2252045;79;21092;-85
2021/03/27 04:34:11;;;;;;;105.47;56.63;;;;;;;3.67;72.12;99055.48;2252084;79;21131;-83
2021/03/27 04:37:13;;;;;;;97.25;50.98;;;;;;;3.70;71.99;99054.75;2251885;79;21301;-84
2021/03/27 04:40:14;;;;;;;95.03;49.33;;;;;;;3.76;72.01;99052.13;2253168;79;21278;-80
2021/03/27 04:43:16;;;;;;;100.02;52.55;;;;;;;3.78;72.05;99058.48;2254332;79;21155;-80
2021/03/27 04:46:17;;;;;;;105.65;55.78;;;;;;;3.78;72.35;99060.59;2254136;79;21262;-82
2021/03/27 04:49:19;;;;;;;110.28;54.38;;;;;;;3.78;72.61;99052.82;2252302;79;21134;-84
2021/03/27 04:52:21;;;;;;;95.12;49.42;;;;;;;3.83;72.07;99061.48;2251971;79;21749;-83
2021/03/27 04:55:22;;;;;;;94.25;53.00;;;;;;;3.93;72.11;99055.87;2251870;79;21305;-84
2021/03/27 04:58:24;;;;;;;95.30;50.08;;;;;;;4.07;71.96;99063.32;2251959;79;21159;-83
2021/03/27 05:01:25;;;;;;;101.05;52.23;;;;;;;4.19;71.84;99060.97;2251919;79;21555;-81
2021/03/27 05:04:27;;;;;;;92.75;47.75;;;;;;;4.38;71.80;99069.30;2251712;79;21238;-82
2021/03/27 05:07:28;;;;;;;98.62;53.73;;;;;;;4.58;71.69;99066.79;2251751;79;21305;-81
2021/03/27 05:10:30;;;;;;;83.60;47.10;;;;;;;4.77;71.51;99058.56;2252085;79;21706;-82
2021/03/27 05:13:31;;;;;;;101.82;53.25;;;;;;;4.97;71.17;99062.48;2251718;79;21260;-84
2021/03/27 05:16:33;;;;;;;95.72;52.73;;;;;;;5.16;70.91;99057.77;2252055;79;21539;-82
2021/03/27 05:19:35;;;;;;;89.50;50.88;;;;;;;5.35;70.37;99053.39;2251955;79;21269;-82
2021/03/27 05:22:37;;;;;;;83.47;46.35;;;;;;;5.55;70.01;99055.96;2251697;79;21123;-82
2021/03/27 05:25:38;;;;;;;89.85;51.88;;;;;;;5.71;69.76;99053.61;2251686;79;21293;-81
2021/03/27 05:28:40;;;;;;;90.10;50.83;;;;;;;5.84;69.59;99051.52;2251979;79;21293;-82
2021/03/27 05:31:41;;;;;;;95.12;52.43;;;;;;;5.91;69.25;99053.92;2251961;79;22300;-81
2021/03/27 05:34:43;;;;;;;89.40;49.13;;;;;;;5.86;69.04;99050.91;2251887;79;21289;-84
2021/03/27 05:37:45;;;;;;;91.25;52.98;;;;;;;5.80;68.97;99051.95;2252144;79;21296;-81
2021/03/27 05:40:46;;;;;;;89.95;51.90;;;;;;;5.70;69.07;99050.67;2252072;79;21332;-81
2021/03/27 05:43:48;;;;;;;97.05;53.68;;;;;;;5.61;69.06;99048.92;2251601;79;21297;-80
2021/03/27 05:46:49;;;;;;;95.40;53.75;;;;;;;5.57;69.15;99045.77;2251817;79;21139;-80
2021/03/27 05:49:51;;;;;;;92.60;51.18;;;;;;;5.61;69.11;99043.24;2252048;79;21277;-81
2021/03/27 05:52:52;;;;;;;86.90;50.63;;;;;;;5.65;68.92;99042.47;2251818;79;21182;-81
2021/03/27 05:55:54;;;;;;;90.60;50.48;;;;;;;5.76;69.05;99042.78;2252248;79;21317;-80
2021/03/27 05:58:56;;;;;;;87.80;48.40;;;;;;;5.87;68.86;99047.36;2252066;79;21325;-82
2021/03/27 06:01:57;;;;;;;89.30;51.23;;;;;;;5.98;68.63;99044.61;2250468;79;21258;-80
2021/03/27 06:04:59;;;;;;;94.70;53.75;;;;;;;6.13;68.56;99047.58;2236993;80;21248;-80
2021/03/27 06:08:01;;;;;;;85.47;50.38;;;;;;;6.26;68.38;99043.34;2236918;80;21158;-81
2021/03/27 06:11:02;;;;;;;94.62;51.68;;;;;;;6.37;67.93;99041.84;2237070;80;21280;-80
2021/03/27 06:14:04;;;;;;;80.22;50.30;;;;;;;6.50;67.82;99035.02;2236794;80;21294;-80
2021/03/27 06:17:05;;;;;;;79.03;45.58;;;;;;;6.67;67.53;99040.70;2237009;80;21122;-81
2021/03/27 06:20:07;;;;;;;81.63;47.85;;;;;;;6.74;67.32;99038.34;2236893;80;21700;-82
2021/03/27 06:23:09;;;;;;;80.65;47.27;;;;;;;6.77;66.63;99034.98;2236978;80;21692;-81
2021/03/27 06:26:10;;;;;;;88.35;49.83;;;;;;;6.81;66.85;99043.30;2236611;80;21138;-81
2021/03/27 06:29:12;;;;;;;93.55;51.70;;;;;;;6.84;66.66;99037.79;2236912;80;21185;-80
2021/03/27 06:32:14;;;;;;;87.30;49.15;;;;;;;6.96;66.78;99037.92;2237218;80;21284;-81
2021/03/27 06:35:15;;;;;;;84.05;49.50;;;;;;;7.12;66.68;99034.14;2236730;80;21314;-81
2021/03/27 06:38:17;;;;;;;85.45;50.20;;;;;;;7.26;66.04;99033.30;2236929;80;21098;-80
2021/03/27 06:41:19;;;;;;;86.95;50.23;;;;;;;7.40;66.23;99024.92;2236826;80;21121;-82
2021/03/27 06:44:21;;;;;;;87.47;49.90;;;;;;;7.57;65.99;99021.47;2237005;80;21716;-81
2021/03/27 06:47:22;;;;;;;79.05;48.35;;;;;;;7.77;65.73;99020.77;2236834;80;21662;-81
2021/03/27 06:50:24;;;;;;;87.95;50.88;;;;;;;7.95;65.30;99019.41;2236863;80;21162;-81
2021/03/27 06:53:26;;;;;;;86.42;52.33;;;;;;;8.06;64.46;99023.08;2237167;80;21292;-82
2021/03/27 06:56:27;;;;;;;83.45;51.28;;;;;;;8.17;64.09;99024.58;2237178;80;21292;-82
2021/03/27 06:59:29;;;;;;;83.78;50.38;;;;;;;8.27;64.34;99028.70;2236608;80;21121;-83
2021/03/27 07:02:30;;;;;;;82.20;50.40;;;;;;;8.38;64.32;99024.20;2231394;80;21158;-82
2021/03/27 07:05:32;;;;;;;83.72;50.48;;;;;;;8.45;63.79;99026.52;2210741;80;21186;-82
2021/03/27 07:08:33;;;;;;;84.72;49.77;;;;;;;8.54;64.27;99028.17;2210955;80;21124;-83
2021/03/27 07:11:35;;;;;;;80.83;49.73;;;;;;;8.63;64.13;99020.70;2210784;80;21241;-84
2021/03/27 07:14:37;;;;;;;85.92;49.95;;;;;;;8.76;63.75;99025.45;2210643;80;21557;-87
2021/03/27 07:17:39;;;;;;;79.55;50.48;;;;;;;8.89;63.62;99021.89;2210856;80;21260;-86
2021/03/27 07:20:41;;;;;;;81.20;50.67;;;;;;;9.02;63.89;99024.02;2210939;80;21264;-86
2021/03/27 07:23:44;;;;;;;79.75;48.05;;;;;;;9.27;63.85;99019.14;2210764;80;21296;-88
2021/03/27 07:26:45;;;;;;;82.15;47.83;;;;;;;9.57;62.64;99020.75;2210844;80;21296;-84
2021/03/27 07:29:47;;;;;;;73.60;47.08;;;;;;;9.72;62.31;99019.09;2210612;80;21118;-85
2021/03/27 07:32:49;;;;;;;75.05;47.45;;;;;;;9.80;62.81;99018.27;2210834;80;21300;-85
2021/03/27 07:35:50;;;;;;;78.33;48.87;;;;;;;10.00;62.17;99023.44;2211086;80;21280;-85
2021/03/27 07:38:52;;;;;;;73.90;46.15;;;;;;;10.31;62.15;99016.16;2211767;80;21590;-84
2021/03/27 07:41:54;;;;;;;68.90;43.17;;;;;;;10.56;62.18;99003.77;2210884;80;21288;-85
2021/03/27 07:44:56;;;;;;;70.40;44.80;;;;;;;10.70;60.43;99003.05;2210676;80;21487;-83
2021/03/27 07:47:57;;;;;;;67.27;44.15;;;;;;;10.70;60.66;99003.05;2211386;80;21686;-79
2021/03/27 07:50:59;;;;;;;72.60;45.35;;;;;;;10.66;60.21;98996.02;2213510;80;21106;-83
2021/03/27 07:54:01;;;;;;;65.50;41.60;;;;;;;10.76;61.12;98996.60;2213436;80;21245;-81
2021/03/27 07:57:02;;;;;;;62.65;41.37;;;;;;;10.89;60.50;98989.99;2211932;80;21288;-84
2021/03/27 08:00:04;;;;;;;69.35;41.45;;;;;;;11.00;59.11;98990.89;2211154;80;21278;-83
2021/03/27 08:03:05;;;;;;;63.20;39.98;;;;;;;11.09;59.56;98991.95;2218119;80;21135;-85
2021/03/27 08:06:07;;;;;;;63.70;41.25;;;;;;;11.21;58.59;98997.59;2236967;80;21684;-86
2021/03/27 08:09:08;;;;;;;62.80;42.35;;;;;;;11.33;58.34;99004.52;2236889;80;21158;-86
2021/03/27 08:12:10;;;;;;;66.82;41.23;;;;;;;11.47;58.66;99005.56;2236908;80;21114;-85
2021/03/27 08:15:12;;;;;;;66.10;39.00;;;;;;;11.60;57.13;99007.06;2236865;80;21303;-85
2021/03/27 08:18:13;;;;;;;61.28;39.67;;;;;;;11.74;57.78;99004.16;2237011;80;21142;-85
2021/03/27 08:21:15;;;;;;;64.55;42.50;;;;;;;11.86;57.67;99002.73;2246180;78;21115;-84
2021/03/27 08:24:16;;;;;;;63.98;40.80;;;;;;;11.98;56.99;98996.06;2241962;78;21760;-85
2021/03/27 08:27:18;;;;;;;66.90;41.60;;;;;;;12.09;56.78;99000.03;2225861;80;21321;-85
2021/03/27 08:30:19;;;;;;;61.42;39.63;;;;;;;12.19;56.49;98995.32;2226418;80;21111;-87
2021/03/27 08:33:21;;;;;;;64.82;40.30;;;;;;;12.28;56.05;98995.53;2225961;80;21551;-86
2021/03/27 08:36:23;;;;;;;60.58;38.45;;;;;;;12.39;56.22;98991.11;2226262;80;21294;-85
2021/03/27 08:39:25;;;;;;;60.88;37.90;;;;;;;12.49;55.71;98990.32;2226602;80;21325;-85
2021/03/27 08:42:27;;;;;;;56.15;36.45;;;;;;;12.59;54.89;98986.08;2226588;80;21274;-85
2021/03/27 08:45:29;;;;;;;54.98;33.90;;;;;;;12.66;55.11;98976.47;2226367;80;21123;-86
2021/03/27 08:48:30;;;;;;;57.70;36.23;;;;;;;12.77;54.58;98973.84;2226536;80;21293;-84
2021/03/27 08:51:32;;;;;;;58.28;36.42;;;;;;;12.88;54.63;98972.53;2226259;80;21293;-87
2021/03/27 08:54:33;;;;;;;56.20;35.75;;;;;;;13.02;54.78;98960.64;2226430;80;21296;-86
2021/03/27 08:57:35;;;;;;;55.70;35.40;;;;;;;13.14;53.35;98959.63;2226324;80;21297;-86
2021/03/27 09:00:37;;;;;;;52.83;35.55;;;;;;;13.13;52.86;98959.81;2226167;80;21300;-85
2021/03/27 09:03:38;;;;;;;53.17;35.40;;;;;;;13.17;54.02;98954.00;2221653;80;21309;-85
2021/03/27 09:06:40;;;;;;;49.42;33.35;;;;;;;13.28;53.44;98953.51;2214599;80;21179;-85
2021/03/27 09:09:41;;;;;;;51.70;33.67;;;;;;;13.44;53.51;98958.99;2173478;82;21338;-85
2021/03/27 09:12:43;;;;;;;49.50;32.98;;;;;;;13.62;52.97;98952.73;2178789;82;21142;-83
2021/03/27 09:15:45;;;;;;;45.23;30.55;;;;;;;13.79;53.11;98952.41;2213661;80;21706;-83
2021/03/27 09:18:47;;;;;;;47.15;31.25;;;;;;;13.95;52.76;98945.00;2174923;82;21318;-84
2021/03/27 09:21:49;;;;;;;46.35;30.45;;;;;;;14.11;51.65;98936.48;2219844;80;21284;-83
2021/03/27 09:24:50;;;;;;;35.65;22.82;;;;;;;14.26;51.03;98939.75;2219715;80;21305;-84
2021/03/27 09:27:52;;;;;;;36.60;22.80;;;;;;;14.43;50.61;98945.48;2220026;80;21554;-80
2021/03/27 09:30:53;;;;;;;32.55;22.17;;;;;;;14.59;50.30;98938.57;2220121;80;21724;-83
2021/03/27 09:33:55;;;;;;;39.27;24.63;;;;;;;14.78;50.63;98939.11;2219621;80;21281;-85
2021/03/27 09:36:57;;;;;;;33.70;22.48;;;;;;;14.92;49.25;98929.91;2218964;80;21308;-84
2021/03/27 09:39:58;;;;;;;35.38;23.42;;;;;;;15.06;49.28;98922.30;2219189;80;21179;-84
2021/03/27 09:43:00;;;;;;;37.93;24.23;;;;;;;15.25;47.52;98925.42;2219124;80;21289;-84
2021/03/27 09:46:01;;;;;;;35.70;23.38;;;;;;;15.43;48.31;98930.59;2219032;80;21182;-84
2021/03/27 09:49:03;;;;;;;32.17;21.60;;;;;;;15.57;48.25;98926.92;2219016;80;21293;-85
2021/03/27 09:52:05;;;;;;;35.05;22.55;;;;;;;15.73;47.83;98923.88;2219082;80;21713;-84
2021/03/27 09:55:06;;;;;;;34.40;22.70;;;;;;;15.85;47.12;98926.16;2219026;80;21301;-86
2021/03/27 09:58:08;;;;;;;31.52;21.45;;;;;;;15.93;46.34;98915.88;2218776;80;21186;-86
2021/03/27 10:01:09;;;;;;;32.38;19.48;;;;;;;15.99;46.42;98918.18;2218990;80;21321;-81
2021/03/27 10:04:11;;;;;;;27.40;19.55;;;;;;;16.08;45.93;98921.69;2222212;80;21714;-81
2021/03/27 10:07:13;;;;;;;27.32;16.87;;;;;;;16.19;45.95;98911.00;2226285;80;21163;-81
2021/03/27 10:10:14;;;;;;;22.98;17.20;;;;;;;16.31;45.05;98905.86;2226354;80;21308;-82
2021/03/27 10:13:16;;;;;;;26.85;18.15;;;;;;;16.39;44.66;98898.48;2226010;80;21147;-82
2021/03/27 10:16:18;;;;;;;26.37;18.23;;;;;;;16.47;44.46;98900.08;2226034;80;21748;-81
2021/03/27 10:19:19;;;;;;;33.90;19.20;;;;;;;16.61;44.66;98904.23;2226448;80;21135;-82
2021/03/27 10:22:21;;;;;;;24.43;16.80;;;;;;;16.74;44.62;98897.59;2226321;80;21163;-82
2021/03/27 10:25:27;;;;;;;29.60;19.75;;;;;;;16.88;43.81;98893.51;2226022;80;21159;-81
2021/03/27 10:28:29;;;;;;;29.57;17.82;;;;;;;16.97;43.88;98896.98;2226405;80;21139;-84
2021/03/27 10:31:30;;;;;;;22.07;14.93;;;;;;;17.08;43.61;98889.38;2226191;80;21174;-81
2021/03/27 10:34:32;;;;;;;29.55;13.88;;;;;;;17.19;42.91;98882.88;2226261;80;21135;-82
2021/03/27 10:37:34;;;;;;;39.90;14.10;;;;;;;17.32;41.38;98891.19;2226209;80;21462;-81
2021/03/27 10:40:35;;;;;;;21.15;12.37;;;;;;;17.46;40.87;98894.50;2226378;80;21163;-82
2021/03/27 10:43:37;;;;;;;20.52;12.55;;;;;;;17.59;39.96;98899.16;2226230;80;21134;-81
2021/03/27 10:46:39;;;;;;;19.50;13.08;;;;;;;17.74;38.90;98893.53;2226494;80;21293;-82
2021/03/27 10:49:40;;;;;;;22.37;13.00;;;;;;;17.90;39.50;98892.11;2226009;80;21760;-81
2021/03/27 10:52:42;;;;;;;21.87;12.68;;;;;;;18.05;38.67;98888.56;2226197;80;21309;-80
2021/03/27 10:55:44;;;;;;;29.12;14.40;;;;;;;18.18;37.97;98882.27;2226332;80;21313;-80
2021/03/27 10:58:46;;;;;;;21.20;13.62;;;;;;;18.33;37.75;98885.86;2226127;80;21336;-80
2021/03/27 11:01:47;;;;;;;21.90;13.93;;;;;;;18.54;38.28;98886.66;2225879;80;21135;-81
2021/03/27 11:04:49;;;;;;;22.15;13.40;;;;;;;18.72;37.68;98884.48;2222056;80;21285;-82
2021/03/27 11:07:50;;;;;;;18.70;12.07;;;;;;;18.79;37.36;98871.94;2218741;80;21325;-81
2021/03/27 11:10:52;;;;;;;16.32;11.03;;;;;;;18.84;36.17;98876.05;2218826;80;21174;-83
2021/03/27 11:13:54;;;;;;;17.12;11.45;;;;;;;18.90;36.75;98874.31;2218394;80;21182;-82
2021/03/27 11:16:55;;;;;;;26.05;14.73;;;;;;;18.96;35.70;98884.02;2218933;80;21269;-84
2021/03/27 11:19:57;;;;;;;24.37;13.32;;;;;;;19.02;38.48;98877.80;2219073;80;21320;-84
2021/03/27 11:23:01;;;;;;;21.52;12.50;;;;;;;19.07;37.65;98887.70;2218753;80;21139;-83
2021/03/27 11:26:04;;;;;;;26.73;13.43;;;;;;;19.11;35.84;98880.40;2219029;80;21750;-82
2021/03/27 11:29:06;;;;;;;19.90;12.05;;;;;;;19.18;36.63;98874.95;2218988;80;21309;-83
2021/03/27 11:32:08;;;;;;;24.82;13.38;;;;;;;19.30;35.51;98871.80;2219099;80;21726;-89
2021/03/27 11:35:09;;;;;;;21.48;11.73;;;;;;;19.43;35.82;98878.18;2219657;80;21150;-83
2021/03/27 11:38:11;;;;;;;19.32;10.78;;;;;;;19.50;34.53;98876.22;2218899;80;21293;-82
2021/03/27 11:41:13;;;;;;;17.00;11.38;;;;;;;19.53;35.06;98878.91;2218775;80;21342;-83
2021/03/27 11:44:14;;;;;;;16.75;11.48;;;;;;;19.46;34.59;98876.90;2218779;80;21178;-83
2021/03/27 11:47:16;;;;;;;18.70;10.60;;;;;;;19.40;34.62;98874.67;2219025;80;21789;-83
2021/03/27 11:50:18;;;;;;;14.85;10.13;;;;;;;19.36;34.64;98875.35;2219042;80;21756;-88
2021/03/27 11:53:19;;;;;;;15.60;9.05;;;;;;;19.38;34.65;98880.71;2218897;80;21728;-82
2021/03/27 11:56:21;;;;;;;16.32;10.90;;;;;;;19.40;33.66;98878.66;2218958;80;21285;-88
2021/03/27 12:02:42;;;;;;;15.23;9.45;;;;;;;19.41;33.46;98881.59;2218961;80;21313;-79
2021/03/27 12:05:44;;;;;;;16.17;9.85;;;;;;;19.40;32.93;98872.02;2218953;80;21182;-82
2021/03/27 12:08:45;;;;;;;16.50;9.40;;;;;;;19.47;33.11;98878.51;2219264;80;21710;-85
2021/03/27 12:11:47;;;;;;;16.95;8.93;;;;;;;19.64;33.35;98879.97;2219277;80;21131;-85
2021/03/27 12:14:49;;;;;;;14.00;9.68;;;;;;;19.82;33.60;98882.47;2219208;80;21189;-82
2021/03/27 12:17:50;;;;;;;16.73;9.38;;;;;;;19.98;33.74;98885.72;2218924;80;21293;-82
2021/03/27 12:20:52;;;;;;;15.70;9.85;;;;;;;20.07;32.69;98892.80;2219055;80;21155;-82
2021/03/27 12:23:54;;;;;;;18.30;10.95;;;;;;;20.14;31.94;98888.95;2218992;80;21800;-83
2021/03/27 12:26:55;;;;;;;19.70;10.78;;;;;;;20.15;32.25;98892.42;2219306;80;21143;-83
2021/03/27 12:29:57;;;;;;;12.65;9.88;;;;;;;20.11;32.32;98891.27;2219092;80;21257;-82
2021/03/27 12:32:58;;;;;;;15.30;10.43;;;;;;;20.08;32.20;98899.20;2219103;80;21737;-82
2021/03/27 12:36:00;;;;;;;19.37;11.20;;;;;;;20.00;31.93;98893.45;2219197;80;21762;-81
2021/03/27 12:39:01;;;;;;;17.48;11.00;;;;;;;19.84;32.12;98898.48;2219213;80;21135;-83
2021/03/27 12:42:03;;;;;;;17.52;11.38;;;;;;;19.65;31.73;98900.17;2218940;80;21293;-83
2021/03/27 12:45:06;;;;;;;17.82;10.82;;;;;;;19.41;32.38;98898.05;2219144;80;21305;-83
2021/03/27 12:48:08;;;;;;;17.55;11.57;;;;;;;19.18;32.39;98904.95;2219071;80;21642;-81
2021/03/27 12:51:10;;;;;;;21.35;10.63;;;;;;;18.97;32.23;98902.35;2219140;80;21568;-83
2021/03/27 12:54:11;;;;;;;40.60;10.65;;;;;;;18.79;32.42;98900.31;2219226;80;21289;-83
2021/03/27 12:57:13;;;;;;;14.68;8.65;;;;;;;18.60;32.45;98913.61;2218915;80;21702;-82
2021/03/27 13:00:14;;;;;;;14.43;7.35;;;;;;;18.57;32.21;98916.72;2219289;80;21179;-82
2021/03/27 13:03:16;;;;;;;23.15;7.25;;;;;;;18.63;32.94;98922.95;2219231;80;21761;-83
2021/03/27 13:06:18;;;;;;;24.90;6.42;;;;;;;18.69;33.21;98928.71;2218882;80;21297;-83
2021/03/27 13:09:19;;;;;;;10.13;6.33;;;;;;;18.68;33.50;98929.75;2219118;80;21306;-83
2021/03/27 13:12:21;;;;;;;17.67;7.97;;;;;;;18.73;34.38;98939.14;2219046;80;21734;-83
2021/03/27 13:15:23;;;;;;;10.35;4.85;;;;;;;18.64;33.68;98948.42;2219344;80;21276;-83
2021/03/27 13:18:25;;;;;;;11.85;5.35;;;;;;;18.41;34.42;98963.74;2218670;80;21278;-83
2021/03/27 13:21:26;;;;;;;10.82;5.17;;;;;;;18.13;34.25;98957.16;2218731;80;21313;-82
2021/03/27 13:24:28;;;;;;;7.60;4.92;;;;;;;17.90;35.13;98954.35;2219175;80;21317;-82
2021/03/27 13:27:29;;;;;;;6.58;4.50;;;;;;;17.73;35.34;98966.03;2218816;80;21725;-82
2021/03/27 13:30:31;;;;;;;6.17;4.37;;;;;;;17.58;35.38;98969.54;2218969;80;21702;-82
2021/03/27 13:33:32;;;;;;;7.05;4.40;;;;;;;17.44;36.49;98962.22;2218861;80;21800;-83
2021/03/27 13:36:34;;;;;;;6.60;4.17;;;;;;;17.35;36.16;98972.27;2219189;80;21317;-86
2021/03/27 13:39:37;;;;;;;8.23;5.28;;;;;;;17.30;37.39;98969.48;2219252;80;21480;-84
2021/03/27 13:42:39;;;;;;;6.33;4.85;;;;;;;17.27;36.90;98965.92;2218836;80;21171;-81
2021/03/27 13:45:40;;;;;;;9.10;5.35;;;;;;;17.25;37.76;98971.14;2218819;80;21305;-81
2021/03/27 13:48:42;;;;;;;6.65;5.20;;;;;;;17.25;37.41;98969.30;2218928;80;21765;-81
2021/03/27 13:51:43;;;;;;;10.43;6.87;;;;;;;17.27;38.18;98965.11;2219065;80;21278;-84
2021/03/27 13:54:45;;;;;;;12.25;6.53;;;;;;;17.23;37.83;98966.58;2219021;80;21705;-83
2021/03/27 13:57:46;;;;;;;10.68;7.22;;;;;;;17.20;37.68;98963.87;2218836;80;21290;-83
2021/03/27 14:00:48;;;;;;;17.52;7.33;;;;;;;17.19;37.40;98962.73;2218945;80;21301;-83
2021/03/27 14:03:49;;;;;;;9.30;7.30;;;;;;;17.22;37.93;98964.97;2219037;80;21319;-83